Buoy 43528

sailwx.info

Track history (hours):
 
Tides and Currents Weather Stations Pressure Air Temp Water Temp Dewpoint Dewpoint Depression Visibility Wind Speed Wind Dir Waves Ship Positions

Drifting buoy 43528

Last reported at 2014-Nov-28 21:00 UTC. Time now 2014-Nov-28 22:51 UTC.
Position N 12°40' W 134°01'.

Water temperature 26.3 ° C

Date/timePositionNaut miles runAvg speedWind from/ knotsBaromVisibWave heightAir tempDewpointWater temp
2014-Nov-28 21:00N 12°40' W 134°01'2 1.2 26.3
2014-Nov-28 19:00N 12°40' W 133°59'1 0.8 26.3
2014-Nov-28 18:00N 12°40' W 133°59'1 1.3 26.3
2014-Nov-28 17:00N 12°39' W 133°58'0 0.0 26.2
2014-Nov-28 16:00N 12°39' W 133°58'2 2.1 26.2
2014-Nov-28 15:00N 12°40' W 133°56'0 0.0 26.2
2014-Nov-28 14:00N 12°40' W 133°56'1 1.3 26.2
2014-Nov-28 13:00N 12°41' W 133°55'1 0.8 26.2
2014-Nov-28 12:00N 12°41' W 133°55'0 0.0 26.2
2014-Nov-28 11:00N 12°41' W 133°55'1 1.3 26.2
2014-Nov-28 10:00N 12°42' W 133°53'1 0.3 26.2
2014-Nov-28 07:00N 12°43' W 133°53'1 0.6 26.3
2014-Nov-28 06:00N 12°43' W 133°53'0 0.2 26.3
2014-Nov-28 05:00N 12°43' W 133°53'1 0.6 26.3
2014-Nov-28 03:00N 12°44' W 133°52'1 0.3 26.3
2014-Nov-27 23:00N 12°46' W 133°53'0 0.3 26.3
2014-Nov-27 22:00N 12°45' W 133°53'0 0.3 26.3
2014-Nov-27 21:00N 12°46' W 133°53'1 0.3 26.3
2014-Nov-27 19:00N 12°45' W 133°53'1 0.6 26.3
2014-Nov-27 18:00N 12°45' W 133°52'3 2.7 26.3
2014-Nov-27 17:00N 12°43' W 133°53'0 0.0 26.2
2014-Nov-27 14:00N 12°43' W 133°53'3 1.3 26.3
2014-Nov-27 12:00N 12°40' W 133°52'0 0.3 26.3
2014-Nov-27 11:00N 12°40' W 133°52'4 3.6 26.3
2014-Nov-27 10:00N 12°37' W 133°50'1 0.1 26.3
2014-Nov-27 06:00N 12°37' W 133°50'1 1.3 26.3
2014-Nov-27 05:00N 12°37' W 133°49'3 1.6 26.3
2014-Nov-27 03:00N 12°35' W 133°46'0 0.0 26.3
2014-Nov-27 02:00N 12°35' W 133°46'3 3.0 26.3
2014-Nov-27 01:00N 12°34' W 133°43'0 0.0 26.3
2014-Nov-27 00:00N 12°34' W 133°43'2 2.5 26.3
2014-Nov-26 23:00N 12°34' W 133°40'4 3.6 26.3
2014-Nov-26 22:00N 12°34' W 133°37'4 3.7 26.3
2014-Nov-26 21:00N 12°34' W 133°40'5 2.4 26.3
2014-Nov-26 19:00N 12°34' W 133°35'1 1.2 26.3
2014-Nov-26 18:00N 12°34' W 133°37'4 4.1 26.3
2014-Nov-26 17:00N 12°34' W 133°32'1 0.3 26.3
2014-Nov-26 15:00N 12°34' W 133°32'3 3.0 26.3
2014-Nov-26 14:00N 12°34' W 133°29'1 0.8 26.2
2014-Nov-26 13:00N 12°34' W 133°28'0 0.0 26.3
2014-Nov-26 12:00N 12°34' W 133°28'2 1.0 26.3
2014-Nov-26 10:00N 12°35' W 133°27'5 1.6 26.3
2014-Nov-26 07:00N 12°38' W 133°23'1 0.6 26.3
2014-Nov-26 06:00N 12°38' W 133°23'0 0.1 26.3
2014-Nov-26 05:00N 12°38' W 133°23'2 2.3 26.3
2014-Nov-26 04:00N 12°40' W 133°22'1 0.3 26.3
2014-Nov-26 02:00N 12°41' W 133°22'1 0.6 26.3
2014-Nov-26 01:00N 12°41' W 133°22'0 0.0 26.3
2014-Nov-26 00:00N 12°41' W 133°22'1 0.8 26.3
2014-Nov-25 23:00N 12°42' W 133°21'0 0.2 26.3
2014-Nov-25 22:00N 12°42' W 133°21'1 0.2 26.3
2014-Nov-25 19:00N 12°43' W 133°21'0 0.0 26.2
2014-Nov-25 18:00N 12°43' W 133°21'1 0.4 26.2
2014-Nov-25 15:00N 12°42' W 133°21'0 0.2 26.2
2014-Nov-25 14:00N 12°41' W 133°22'1 1.2 26.2
2014-Nov-25 13:00N 12°40' W 133°22'0 0.0 26.2
2014-Nov-25 12:00N 12°40' W 133°22'3 1.6 26.2
2014-Nov-25 10:00N 12°38' W 133°19'1 0.2 26.2
2014-Nov-25 06:00N 12°38' W 133°19'3 1.3 26.3
2014-Nov-25 04:00N 12°36' W 133°17'0 0.2 26.3
2014-Nov-25 03:00N 12°36' W 133°17'1 1.3 26.3
2014-Nov-25 02:00N 12°35' W 133°16'4 0.9 26.3
2014-Nov-24 22:00N 12°33' W 133°13'5 1.6 26.4
2014-Nov-24 19:00N 12°32' W 133°08'4 1.8 26.3
2014-Nov-24 17:00N 12°32' W 133°04'2 0.8 26.3
2014-Nov-24 14:00N 12°32' W 133°02'0 0.0 26.3
2014-Nov-24 13:00N 12°32' W 133°02'2 2.4 26.3
2014-Nov-24 12:00N 12°32' W 132°59'4 3.9 26.3
2014-Nov-24 11:00N 12°34' W 132°56'4 3.7 26.3
2014-Nov-24 10:00N 12°32' W 132°59'4 1.5 26.3
2014-Nov-24 07:00N 12°34' W 132°55'0 0.0 26.4
2014-Nov-24 06:00N 12°34' W 132°55'2 0.8 26.4
2014-Nov-24 03:00N 12°35' W 132°53'2 2.4 26.4
2014-Nov-24 02:00N 12°34' W 132°50'3 0.8 26.4
2014-Nov-23 23:00N 12°36' W 132°49'0 0.1 26.4
2014-Nov-23 22:00N 12°36' W 132°49'2 0.7 26.4
2014-Nov-23 19:00N 12°38' W 132°47'1 0.8 26.4
2014-Nov-23 18:00N 12°37' W 132°48'2 1.8 26.4
2014-Nov-23 17:00N 12°37' W 132°46'1 0.3 26.4
2014-Nov-23 15:00N 12°38' W 132°46'2 1.7 26.4
2014-Nov-23 14:00N 12°37' W 132°45'1 0.4 26.4
2014-Nov-23 12:00N 12°37' W 132°44'2 1.7 26.4
2014-Nov-23 11:00N 12°36' W 132°43'0 0.0 26.4
2014-Nov-23 09:00N 12°36' W 132°43'0 0.0 26.4
2014-Nov-23 06:00N 12°36' W 132°43'1 0.8 26.4
2014-Nov-23 05:00N 12°35' W 132°43'2 1.7 26.5
2014-Nov-23 04:00N 12°34' W 132°41'5 1.2 26.5
2014-Nov-23 00:00N 12°33' W 132°37'2 0.9 26.5
2014-Nov-22 22:00N 12°32' W 132°35'1 0.4 26.6
2014-Nov-22 19:00N 12°32' W 132°34'1 0.6 26.5
2014-Nov-22 18:00N 12°32' W 132°33'0 0.0 26.5
2014-Nov-22 17:00N 12°32' W 132°33'4 1.9 26.5
2014-Nov-22 15:00N 12°31' W 132°29'1 1.3 26.6
2014-Nov-22 14:00N 12°31' W 132°28'3 2.9 26.6
2014-Nov-22 13:00N 12°31' W 132°25'0 0.2 26.6
2014-Nov-22 12:00N 12°30' W 132°25'0 0.2 26.6
2014-Nov-22 11:00N 12°31' W 132°25'5 2.6 26.6
2014-Nov-22 09:00N 12°30' W 132°20'0 0.1 26.6
2014-Nov-22 07:00N 12°30' W 132°20'1 0.8 26.7
2014-Nov-22 06:00N 12°29' W 132°20'2 2.4 26.7
2014-Nov-22 05:00N 12°29' W 132°18'3 1.6 26.7
2014-Nov-22 03:00N 12°30' W 132°15'0 0.2 26.7
2014-Nov-22 02:00N 12°30' W 132°15'8 2.1 26.7
2014-Nov-21 22:00N 12°30' W 132°06'1 0.4 26.8
2014-Nov-21 19:00N 12°31' W 132°05'0 0.0 26.8
2014-Nov-21 18:00N 12°31' W 132°05'4 4.3 26.8
2014-Nov-21 17:00N 12°32' W 132°01'2 0.4 26.8
2014-Nov-21 13:00N 12°32' W 131°59'0 0.0 26.8
2014-Nov-21 11:00N 12°32' W 131°59'2 1.7 26.8
2014-Nov-21 10:00N 12°33' W 131°58'0 0.0 26.8
2014-Nov-21 09:00N 12°33' W 131°58'5 2.4 26.8
2014-Nov-21 07:00N 12°34' W 131°53'1 0.6 26.8
2014-Nov-21 06:00N 12°34' W 131°53'0 0.0 26.8
2014-Nov-21 05:00N 12°34' W 131°53'2 0.9 26.8
2014-Nov-21 03:00N 12°34' W 131°51'2 1.9 26.8
2014-Nov-21 02:00N 12°35' W 131°49'1 0.6 26.8
2014-Nov-21 01:00N 12°35' W 131°49'4 2.0 26.9
2014-Nov-20 23:00N 12°35' W 131°44'0 0.1 26.9
2014-Nov-20 21:00N 12°35' W 131°45'3 1.6 26.9
2014-Nov-20 19:00N 12°35' W 131°41'1 0.6 26.8
2014-Nov-20 18:00N 12°35' W 131°41'2 2.4 26.8
2014-Nov-20 17:00N 12°36' W 131°38'2 1.0 26.8
2014-Nov-20 15:00N 12°37' W 131°37'0 0.0 26.8
2014-Nov-20 14:00N 12°37' W 131°37'0 0.0 26.8
2014-Nov-20 13:00N 12°37' W 131°37'1 1.2 26.8
2014-Nov-20 12:00N 12°37' W 131°35'2 1.8 26.8
2014-Nov-20 11:00N 12°37' W 131°34'4 3.5 26.8
2014-Nov-20 10:00N 12°37' W 131°30'4 4.1 26.8
2014-Nov-20 09:00N 12°37' W 131°34'5 1.6 26.8
2014-Nov-20 06:00N 12°37' W 131°29'1 1.3 26.9
2014-Nov-20 05:00N 12°37' W 131°28'1 0.6 26.9
2014-Nov-20 04:00N 12°37' W 131°28'2 2.4 26.9
2014-Nov-20 03:00N 12°38' W 131°25'0 0.0 26.9
2014-Nov-20 02:00N 12°38' W 131°25'3 1.6 26.9
2014-Nov-20 00:00N 12°39' W 131°22'2 1.9 26.9
2014-Nov-19 23:00N 12°38' W 131°20'0 0.0 26.9
2014-Nov-19 21:00N 12°38' W 131°20'3 1.1 26.9
2014-Nov-19 18:00N 12°40' W 131°17'1 1.2 26.9
2014-Nov-19 17:00N 12°40' W 131°16'1 0.7 26.9
2014-Nov-19 15:00N 12°41' W 131°15'1 0.8 26.8
2014-Nov-19 14:00N 12°41' W 131°16'1 1.2 26.8
2014-Nov-19 13:00N 12°41' W 131°14'1 0.7 26.9
2014-Nov-19 12:00N 12°41' W 131°14'1 1.5 26.8
2014-Nov-19 11:00N 12°41' W 131°12'3 2.9 26.9
2014-Nov-19 10:00N 12°40' W 131°10'1 0.4 26.9
2014-Nov-19 07:00N 12°41' W 131°09'0 0.0 26.9
2014-Nov-19 06:00N 12°41' W 131°09'1 0.6 26.9
2014-Nov-19 05:00N 12°41' W 131°08'2 0.9 26.9
2014-Nov-19 03:00N 12°41' W 131°07'3 1.7 26.9
2014-Nov-19 01:00N 12°43' W 131°04'0 0.0 27.0
2014-Nov-19 00:00N 12°43' W 131°04'2 1.9 27.0
2014-Nov-18 23:00N 12°43' W 131°02'0 0.0 27.0
2014-Nov-18 21:00N 12°43' W 131°02'   27.0
Track history (hours):
 
Tides and Currents Weather Stations Pressure Air Temp Water Temp Dewpoint Dewpoint Depression Visibility Wind Speed Wind Dir Waves Ship Positions

Drifting buoy 43528

Last reported at 2014-Nov-28 21:00 UTC. Time now 2014-Nov-28 22:51 UTC.
Position N 12°40' W 134°01'.

Water temperature 26.3 ° C

Date/timePositionNaut miles runAvg speedWind from/ knotsBaromVisibWave heightAir tempDewpointWater temp
2014-Nov-28 21:00N 12°40' W 134°01'2 1.2 26.3
2014-Nov-28 19:00N 12°40' W 133°59'1 0.8 26.3
2014-Nov-28 18:00N 12°40' W 133°59'1 1.3 26.3
2014-Nov-28 17:00N 12°39' W 133°58'0 0.0 26.2
2014-Nov-28 16:00N 12°39' W 133°58'2 2.1 26.2
2014-Nov-28 15:00N 12°40' W 133°56'0 0.0 26.2
2014-Nov-28 14:00N 12°40' W 133°56'1 1.3 26.2
2014-Nov-28 13:00N 12°41' W 133°55'1 0.8 26.2
2014-Nov-28 12:00N 12°41' W 133°55'0 0.0 26.2
2014-Nov-28 11:00N 12°41' W 133°55'1 1.3 26.2
2014-Nov-28 10:00N 12°42' W 133°53'1 0.3 26.2
2014-Nov-28 07:00N 12°43' W 133°53'1 0.6 26.3
2014-Nov-28 06:00N 12°43' W 133°53'0 0.2 26.3
2014-Nov-28 05:00N 12°43' W 133°53'1 0.6 26.3
2014-Nov-28 03:00N 12°44' W 133°52'1 0.3 26.3
2014-Nov-27 23:00N 12°46' W 133°53'0 0.3 26.3
2014-Nov-27 22:00N 12°45' W 133°53'0 0.3 26.3
2014-Nov-27 21:00N 12°46' W 133°53'1 0.3 26.3
2014-Nov-27 19:00N 12°45' W 133°53'1 0.6 26.3
2014-Nov-27 18:00N 12°45' W 133°52'3 2.7 26.3
2014-Nov-27 17:00N 12°43' W 133°53'0 0.0 26.2
2014-Nov-27 14:00N 12°43' W 133°53'3 1.3 26.3
2014-Nov-27 12:00N 12°40' W 133°52'0 0.3 26.3
2014-Nov-27 11:00N 12°40' W 133°52'4 3.6 26.3
2014-Nov-27 10:00N 12°37' W 133°50'1 0.1 26.3
2014-Nov-27 06:00N 12°37' W 133°50'1 1.3 26.3
2014-Nov-27 05:00N 12°37' W 133°49'3 1.6 26.3
2014-Nov-27 03:00N 12°35' W 133°46'0 0.0 26.3
2014-Nov-27 02:00N 12°35' W 133°46'3 3.0 26.3
2014-Nov-27 01:00N 12°34' W 133°43'0 0.0 26.3
2014-Nov-27 00:00N 12°34' W 133°43'2 2.5 26.3
2014-Nov-26 23:00N 12°34' W 133°40'4 3.6 26.3
2014-Nov-26 22:00N 12°34' W 133°37'4 3.7 26.3
2014-Nov-26 21:00N 12°34' W 133°40'5 2.4 26.3
2014-Nov-26 19:00N 12°34' W 133°35'1 1.2 26.3
2014-Nov-26 18:00N 12°34' W 133°37'4 4.1 26.3
2014-Nov-26 17:00N 12°34' W 133°32'1 0.3 26.3
2014-Nov-26 15:00N 12°34' W 133°32'3 3.0 26.3
2014-Nov-26 14:00N 12°34' W 133°29'1 0.8 26.2
2014-Nov-26 13:00N 12°34' W 133°28'0 0.0 26.3
2014-Nov-26 12:00N 12°34' W 133°28'2 1.0 26.3
2014-Nov-26 10:00N 12°35' W 133°27'5 1.6 26.3
2014-Nov-26 07:00N 12°38' W 133°23'1 0.6 26.3
2014-Nov-26 06:00N 12°38' W 133°23'0 0.1 26.3
2014-Nov-26 05:00N 12°38' W 133°23'2 2.3 26.3
2014-Nov-26 04:00N 12°40' W 133°22'1 0.3 26.3
2014-Nov-26 02:00N 12°41' W 133°22'1 0.6 26.3
2014-Nov-26 01:00N 12°41' W 133°22'0 0.0 26.3
2014-Nov-26 00:00N 12°41' W 133°22'1 0.8 26.3
2014-Nov-25 23:00N 12°42' W 133°21'0 0.2 26.3
2014-Nov-25 22:00N 12°42' W 133°21'1 0.2 26.3
2014-Nov-25 19:00N 12°43' W 133°21'0 0.0 26.2
2014-Nov-25 18:00N 12°43' W 133°21'1 0.4 26.2
2014-Nov-25 15:00N 12°42' W 133°21'0 0.2 26.2
2014-Nov-25 14:00N 12°41' W 133°22'1 1.2 26.2
2014-Nov-25 13:00N 12°40' W 133°22'0 0.0 26.2
2014-Nov-25 12:00N 12°40' W 133°22'3 1.6 26.2
2014-Nov-25 10:00N 12°38' W 133°19'1 0.2 26.2
2014-Nov-25 06:00N 12°38' W 133°19'3 1.3 26.3
2014-Nov-25 04:00N 12°36' W 133°17'0 0.2 26.3
2014-Nov-25 03:00N 12°36' W 133°17'1 1.3 26.3
2014-Nov-25 02:00N 12°35' W 133°16'4 0.9 26.3
2014-Nov-24 22:00N 12°33' W 133°13'5 1.6 26.4
2014-Nov-24 19:00N 12°32' W 133°08'4 1.8 26.3
2014-Nov-24 17:00N 12°32' W 133°04'2 0.8 26.3
2014-Nov-24 14:00N 12°32' W 133°02'0 0.0 26.3
2014-Nov-24 13:00N 12°32' W 133°02'2 2.4 26.3
2014-Nov-24 12:00N 12°32' W 132°59'4 3.9 26.3
2014-Nov-24 11:00N 12°34' W 132°56'4 3.7 26.3
2014-Nov-24 10:00N 12°32' W 132°59'4 1.5 26.3
2014-Nov-24 07:00N 12°34' W 132°55'0 0.0 26.4
2014-Nov-24 06:00N 12°34' W 132°55'2 0.8 26.4
2014-Nov-24 03:00N 12°35' W 132°53'2 2.4 26.4
2014-Nov-24 02:00N 12°34' W 132°50'3 0.8 26.4
2014-Nov-23 23:00N 12°36' W 132°49'0 0.1 26.4
2014-Nov-23 22:00N 12°36' W 132°49'2 0.7 26.4
2014-Nov-23 19:00N 12°38' W 132°47'1 0.8 26.4
2014-Nov-23 18:00N 12°37' W 132°48'2 1.8 26.4
2014-Nov-23 17:00N 12°37' W 132°46'1 0.3 26.4
2014-Nov-23 15:00N 12°38' W 132°46'2 1.7 26.4
2014-Nov-23 14:00N 12°37' W 132°45'1 0.4 26.4
2014-Nov-23 12:00N 12°37' W 132°44'2 1.7 26.4
2014-Nov-23 11:00N 12°36' W 132°43'0 0.0 26.4
2014-Nov-23 09:00N 12°36' W 132°43'0 0.0 26.4
2014-Nov-23 06:00N 12°36' W 132°43'1 0.8 26.4
2014-Nov-23 05:00N 12°35' W 132°43'2 1.7 26.5
2014-Nov-23 04:00N 12°34' W 132°41'5 1.2 26.5
2014-Nov-23 00:00N 12°33' W 132°37'2 0.9 26.5
2014-Nov-22 22:00N 12°32' W 132°35'1 0.4 26.6
2014-Nov-22 19:00N 12°32' W 132°34'1 0.6 26.5
2014-Nov-22 18:00N 12°32' W 132°33'0 0.0 26.5
2014-Nov-22 17:00N 12°32' W 132°33'4 1.9 26.5
2014-Nov-22 15:00N 12°31' W 132°29'1 1.3 26.6
2014-Nov-22 14:00N 12°31' W 132°28'3 2.9 26.6
2014-Nov-22 13:00N 12°31' W 132°25'0 0.2 26.6
2014-Nov-22 12:00N 12°30' W 132°25'0 0.2 26.6
2014-Nov-22 11:00N 12°31' W 132°25'5 2.6 26.6
2014-Nov-22 09:00N 12°30' W 132°20'0 0.1 26.6
2014-Nov-22 07:00N 12°30' W 132°20'1 0.8 26.7
2014-Nov-22 06:00N 12°29' W 132°20'2 2.4 26.7
2014-Nov-22 05:00N 12°29' W 132°18'3 1.6 26.7
2014-Nov-22 03:00N 12°30' W 132°15'0 0.2 26.7
2014-Nov-22 02:00N 12°30' W 132°15'8 2.1 26.7
2014-Nov-21 22:00N 12°30' W 132°06'1 0.4 26.8
2014-Nov-21 19:00N 12°31' W 132°05'0 0.0 26.8
2014-Nov-21 18:00N 12°31' W 132°05'4 4.3 26.8
2014-Nov-21 17:00N 12°32' W 132°01'2 0.4 26.8
2014-Nov-21 13:00N 12°32' W 131°59'0 0.0 26.8
2014-Nov-21 11:00N 12°32' W 131°59'2 1.7 26.8
2014-Nov-21 10:00N 12°33' W 131°58'0 0.0 26.8
2014-Nov-21 09:00N 12°33' W 131°58'5 2.4 26.8
2014-Nov-21 07:00N 12°34' W 131°53'1 0.6 26.8
2014-Nov-21 06:00N 12°34' W 131°53'0 0.0 26.8
2014-Nov-21 05:00N 12°34' W 131°53'2 0.9 26.8
2014-Nov-21 03:00N 12°34' W 131°51'2 1.9 26.8
2014-Nov-21 02:00N 12°35' W 131°49'1 0.6 26.8
2014-Nov-21 01:00N 12°35' W 131°49'4 2.0 26.9
2014-Nov-20 23:00N 12°35' W 131°44'0 0.1 26.9
2014-Nov-20 21:00N 12°35' W 131°45'3 1.6 26.9
2014-Nov-20 19:00N 12°35' W 131°41'1 0.6 26.8
2014-Nov-20 18:00N 12°35' W 131°41'2 2.4 26.8
2014-Nov-20 17:00N 12°36' W 131°38'2 1.0 26.8
2014-Nov-20 15:00N 12°37' W 131°37'0 0.0 26.8
2014-Nov-20 14:00N 12°37' W 131°37'0 0.0 26.8
2014-Nov-20 13:00N 12°37' W 131°37'1 1.2 26.8
2014-Nov-20 12:00N 12°37' W 131°35'2 1.8 26.8
2014-Nov-20 11:00N 12°37' W 131°34'4 3.5 26.8
2014-Nov-20 10:00N 12°37' W 131°30'4 4.1 26.8
2014-Nov-20 09:00N 12°37' W 131°34'5 1.6 26.8
2014-Nov-20 06:00N 12°37' W 131°29'1 1.3 26.9
2014-Nov-20 05:00N 12°37' W 131°28'1 0.6 26.9
2014-Nov-20 04:00N 12°37' W 131°28'2 2.4 26.9
2014-Nov-20 03:00N 12°38' W 131°25'0 0.0 26.9
2014-Nov-20 02:00N 12°38' W 131°25'3 1.6 26.9
2014-Nov-20 00:00N 12°39' W 131°22'2 1.9 26.9
2014-Nov-19 23:00N 12°38' W 131°20'0 0.0 26.9
2014-Nov-19 21:00N 12°38' W 131°20'3 1.1 26.9
2014-Nov-19 18:00N 12°40' W 131°17'1 1.2 26.9
2014-Nov-19 17:00N 12°40' W 131°16'1 0.7 26.9
2014-Nov-19 15:00N 12°41' W 131°15'1 0.8 26.8
2014-Nov-19 14:00N 12°41' W 131°16'1 1.2 26.8
2014-Nov-19 13:00N 12°41' W 131°14'1 0.7 26.9
2014-Nov-19 12:00N 12°41' W 131°14'1 1.5 26.8
2014-Nov-19 11:00N 12°41' W 131°12'3 2.9 26.9
2014-Nov-19 10:00N 12°40' W 131°10'1 0.4 26.9
2014-Nov-19 07:00N 12°41' W 131°09'0 0.0 26.9
2014-Nov-19 06:00N 12°41' W 131°09'1 0.6 26.9
2014-Nov-19 05:00N 12°41' W 131°08'2 0.9 26.9
2014-Nov-19 03:00N 12°41' W 131°07'3 1.7 26.9
2014-Nov-19 01:00N 12°43' W 131°04'0 0.0 27.0
2014-Nov-19 00:00N 12°43' W 131°04'2 1.9 27.0
2014-Nov-18 23:00N 12°43' W 131°02'0 0.0 27.0
2014-Nov-18 21:00N 12°43' W 131°02'   27.0

Dump ship's entire track history